createdAt,value
2023-05-10T00:02:36.188Z,77.00
2023-05-10T00:05:32.462Z,76.93
2023-05-10T00:08:43.299Z,77.02
2023-05-10T00:11:39.377Z,77.21
2023-05-10T00:14:42.233Z,77.39
2023-05-10T00:17:35.173Z,77.60
2023-05-10T00:20:30.890Z,77.72
2023-05-10T00:23:35.363Z,77.76
2023-05-10T00:26:29.126Z,77.79
2023-05-10T00:29:25.252Z,77.87
2023-05-10T00:32:19.113Z,77.98
2023-05-10T00:35:10.776Z,77.92
2023-05-10T00:38:06.773Z,78.10
2023-05-10T00:40:57.624Z,78.29
2023-05-10T00:43:52.056Z,78.48
2023-05-10T00:46:52.001Z,78.82
2023-05-10T00:49:59.808Z,79.31
2023-05-10T00:53:03.607Z,79.44
2023-05-10T00:55:56.704Z,79.49
2023-05-10T00:59:05.919Z,79.70
2023-05-10T01:01:56.776Z,79.86
2023-05-10T01:04:49.954Z,79.98
2023-05-10T01:07:40.945Z,79.85
2023-05-10T01:10:32.273Z,79.99
2023-05-10T01:13:33.013Z,80.14
2023-05-10T01:16:23.906Z,80.03
2023-05-10T01:19:19.925Z,80.21
2023-05-10T01:22:16.237Z,80.35
2023-05-10T01:25:18.050Z,80.51
2023-05-10T01:28:34.403Z,80.69
2023-05-10T01:31:40.114Z,80.70
2023-05-10T01:34:36.600Z,80.80
2023-05-10T01:37:31.623Z,80.95
2023-05-10T01:40:25.859Z,81.28
2023-05-10T01:43:21.873Z,81.46
2023-05-10T01:46:17.132Z,81.68
2023-05-10T01:49:16.337Z,81.69
2023-05-10T01:52:29.352Z,81.71
2023-05-10T01:55:22.830Z,81.65
2023-05-10T01:58:18.318Z,81.71
2023-05-10T02:01:09.459Z,81.79
2023-05-10T02:04:10.172Z,81.75
2023-05-10T02:07:21.816Z,81.73
2023-05-10T02:10:18.467Z,81.82
2023-05-10T02:13:20.642Z,81.97
2023-05-10T02:16:27.610Z,82.18
2023-05-10T02:19:24.610Z,82.27
2023-05-10T02:22:21.614Z,82.34
2023-05-10T02:25:17.998Z,82.40
2023-05-10T02:28:09.715Z,82.64
2023-05-10T02:31:00.910Z,82.66
2023-05-10T02:34:04.016Z,82.60
2023-05-10T02:37:01.564Z,82.57
2023-05-10T02:40:13.506Z,82.58
2023-05-10T02:43:07.674Z,82.69
2023-05-10T02:46:01.950Z,82.81
2023-05-10T02:48:52.750Z,83.03
2023-05-10T02:51:49.039Z,83.25
2023-05-10T02:54:46.110Z,83.48
2023-05-10T02:57:44.304Z,83.52
2023-05-10T03:00:35.375Z,83.48
2023-05-10T03:03:26.014Z,83.46
2023-05-10T03:06:20.096Z,83.42
2023-05-10T03:09:17.157Z,83.34
2023-05-10T03:12:10.521Z,83.26
2023-05-10T03:15:11.196Z,83.37
2023-05-10T03:18:09.174Z,83.57
2023-05-10T03:21:01.951Z,83.75
2023-05-10T03:24:00.403Z,83.74
2023-05-10T03:26:56.060Z,83.86
2023-05-10T03:29:49.543Z,83.83
2023-05-10T03:32:49.235Z,83.68
2023-05-10T03:35:42.975Z,84.13
2023-05-10T03:38:42.653Z,84.13
2023-05-10T03:41:38.951Z,84.31
2023-05-10T03:44:34.368Z,84.43
2023-05-10T03:47:35.419Z,84.77
2023-05-10T03:50:31.508Z,85.10
2023-05-10T03:53:28.048Z,85.28
2023-05-10T03:56:29.588Z,85.48
2023-05-10T03:59:22.874Z,85.68
2023-05-10T04:02:16.887Z,85.84
2023-05-10T04:05:13.882Z,85.93
2023-05-10T04:08:05.611Z,86.02
2023-05-10T04:11:08.907Z,85.93
2023-05-10T04:14:04.987Z,86.10
2023-05-10T04:17:10.750Z,86.10
2023-05-10T04:20:21.599Z,86.24
2023-05-10T04:23:15.333Z,86.43
2023-05-10T04:26:17.773Z,86.40
2023-05-10T04:29:28.980Z,86.56
2023-05-10T04:32:25.304Z,86.73
2023-05-10T04:35:20.839Z,86.88
2023-05-10T04:38:11.460Z,86.86
2023-05-10T04:41:19.027Z,87.11
2023-05-10T04:44:21.709Z,87.35
2023-05-10T04:47:18.031Z,87.43
2023-05-10T04:50:20.198Z,87.49
2023-05-10T04:53:23.814Z,87.55
2023-05-10T04:56:27.492Z,87.67
2023-05-10T04:59:23.673Z,87.75
2023-05-10T05:02:30.963Z,87.49
2023-05-10T05:05:31.784Z,87.47
2023-05-10T05:08:42.631Z,87.56
2023-05-10T05:11:42.133Z,87.43
2023-05-10T05:14:32.875Z,87.37
2023-05-10T05:17:23.545Z,87.15
2023-05-10T05:20:14.893Z,87.17
2023-05-10T05:23:05.582Z,87.02
2023-05-10T05:25:56.784Z,86.80
2023-05-10T05:28:47.419Z,86.80
2023-05-10T05:31:38.079Z,86.73
2023-05-10T05:34:36.173Z,86.72
2023-05-10T05:37:32.022Z,86.74
2023-05-10T05:40:25.970Z,86.63
2023-05-10T05:43:27.656Z,86.60
2023-05-10T05:46:23.158Z,86.41
2023-05-10T05:49:19.306Z,86.02
2023-05-10T05:52:12.843Z,85.84
2023-05-10T05:55:12.995Z,85.65
2023-05-10T05:58:06.111Z,85.62
2023-05-10T06:00:57.024Z,85.55
2023-05-10T06:03:48.683Z,85.75
2023-05-10T06:06:39.793Z,85.91
2023-05-10T06:09:30.366Z,85.81
2023-05-10T06:12:25.895Z,85.39
2023-05-10T06:15:25.831Z,85.01
2023-05-10T06:18:16.629Z,84.75
2023-05-10T06:21:10.487Z,84.33
2023-05-10T06:24:09.263Z,84.11
2023-05-10T06:27:05.543Z,83.86
2023-05-10T06:30:12.449Z,83.50
2023-05-10T06:33:04.824Z,83.05
2023-05-10T06:35:55.389Z,82.98
2023-05-10T06:38:47.608Z,82.40
2023-05-10T06:41:38.305Z,81.96
2023-05-10T06:44:29.247Z,81.82
2023-05-10T06:47:19.958Z,81.66
2023-05-10T06:50:13.658Z,81.18
2023-05-10T06:53:06.856Z,81.10
2023-05-10T06:55:57.491Z,80.88
2023-05-10T06:58:48.124Z,80.66
2023-05-10T07:01:39.071Z,80.56
2023-05-10T07:04:30.228Z,80.32
2023-05-10T07:07:21.120Z,80.43
2023-05-10T07:10:32.252Z,80.24
2023-05-10T07:13:27.525Z,80.18
2023-05-10T07:16:22.738Z,79.39
2023-05-10T07:19:16.463Z,79.05
2023-05-10T07:22:07.416Z,78.92
2023-05-10T07:24:58.232Z,78.83
2023-05-10T07:27:49.780Z,78.77
2023-05-10T07:30:40.044Z,78.89
2023-05-10T07:33:44.148Z,78.69
2023-05-10T07:36:34.873Z,78.47
2023-05-10T07:39:27.537Z,78.39
2023-05-10T07:42:18.968Z,77.59
2023-05-10T07:45:15.678Z,76.35
2023-05-10T07:48:09.928Z,75.53
2023-05-10T07:51:00.656Z,74.83
2023-05-10T07:53:51.982Z,74.41
2023-05-10T07:56:46.788Z,73.87
2023-05-10T07:59:37.622Z,74.18
2023-05-10T08:02:29.027Z,73.84
2023-05-10T08:05:20.023Z,73.17
2023-05-10T08:08:10.676Z,73.14
2023-05-10T08:11:03.548Z,72.51
2023-05-10T08:13:55.220Z,70.74
2023-05-10T08:16:46.224Z,69.69
2023-05-10T08:19:36.779Z,69.19
2023-05-10T08:22:27.758Z,68.32
2023-05-10T08:25:18.749Z,67.83
2023-05-10T08:28:10.709Z,68.34
2023-05-10T08:31:02.707Z,69.08
2023-05-10T08:33:53.831Z,69.70
2023-05-10T08:36:44.056Z,69.78
2023-05-10T08:39:38.425Z,69.78
2023-05-10T08:42:31.169Z,70.33
2023-05-10T08:45:25.468Z,70.34
2023-05-10T08:48:16.694Z,70.18
2023-05-10T08:51:08.001Z,70.28
2023-05-10T08:53:58.939Z,70.88
2023-05-10T08:56:49.913Z,71.27
2023-05-10T08:59:40.935Z,71.14
2023-05-10T09:02:32.083Z,69.95
2023-05-10T09:05:22.806Z,69.04
2023-05-10T09:08:14.271Z,67.61
2023-05-10T09:11:05.092Z,66.71
2023-05-10T09:13:55.750Z,65.93
2023-05-10T09:16:46.606Z,65.65
2023-05-10T09:19:37.189Z,63.79
2023-05-10T09:22:27.654Z,60.71
2023-05-10T09:25:19.137Z,56.62
2023-05-10T09:28:10.618Z,55.93
2023-05-10T09:31:01.223Z,55.60
2023-05-10T09:33:52.535Z,56.39
2023-05-10T09:36:53.605Z,57.11
2023-05-10T09:39:44.070Z,57.17
2023-05-10T09:42:34.689Z,56.80
2023-05-10T09:45:26.114Z,57.38
2023-05-10T09:48:16.752Z,58.69
2023-05-10T09:51:07.356Z,59.02
2023-05-10T09:56:53.919Z,57.39
2023-05-10T09:59:46.452Z,55.86
2023-05-10T10:02:39.564Z,55.65
2023-05-10T10:05:33.352Z,56.86
2023-05-10T10:08:24.266Z,58.38
2023-05-10T10:11:14.903Z,59.99
2023-05-10T10:14:05.802Z,61.60
2023-05-10T10:17:07.240Z,63.01
2023-05-10T10:19:59.471Z,63.73
2023-05-10T10:22:50.392Z,63.38
2023-05-10T10:25:41.565Z,61.77
2023-05-10T10:28:38.391Z,58.10
2023-05-10T10:31:34.969Z,55.40
2023-05-10T10:34:28.238Z,53.19
2023-05-10T10:37:18.702Z,51.07
2023-05-10T10:40:22.963Z,48.83
2023-05-10T10:43:26.758Z,48.06
2023-05-10T10:46:18.688Z,47.32
2023-05-10T10:49:12.944Z,46.07
2023-05-10T10:52:20.623Z,44.86
2023-05-10T10:55:12.387Z,45.80
2023-05-10T10:58:03.961Z,47.59
2023-05-10T11:01:11.238Z,47.90
2023-05-10T11:04:19.241Z,47.39
2023-05-10T11:07:20.071Z,48.79
2023-05-10T11:10:11.508Z,50.67
2023-05-10T11:13:03.554Z,51.71
2023-05-10T11:15:54.234Z,51.67
2023-05-10T11:18:54.233Z,51.92
2023-05-10T11:21:49.224Z,52.49
2023-05-10T11:24:39.738Z,52.82
2023-05-10T11:27:30.299Z,52.32
2023-05-10T11:30:21.317Z,52.45
2023-05-10T11:33:12.281Z,53.73
2023-05-10T11:36:03.033Z,54.88
2023-05-10T11:38:53.999Z,55.55
2023-05-10T11:41:44.693Z,53.44
2023-05-10T11:44:35.381Z,52.17
2023-05-10T11:47:26.029Z,52.14
2023-05-10T11:50:16.946Z,52.06
2023-05-10T11:53:07.784Z,52.12
2023-05-10T11:56:04.720Z,52.59
2023-05-10T11:58:56.860Z,52.14
2023-05-10T12:01:47.811Z,51.84
2023-05-10T12:04:38.598Z,52.67
2023-05-10T12:07:32.130Z,53.80
2023-05-10T12:10:27.791Z,54.75
2023-05-10T12:13:17.956Z,55.11
2023-05-10T12:16:17.740Z,54.45
2023-05-10T12:19:08.967Z,52.74
2023-05-10T12:21:59.772Z,50.81
2023-05-10T12:24:50.316Z,50.25
2023-05-10T12:27:41.200Z,51.97
2023-05-10T12:30:32.526Z,53.94
2023-05-10T12:33:23.005Z,55.23
2023-05-10T12:36:14.091Z,56.29
2023-05-10T12:39:06.210Z,57.27
2023-05-10T12:41:56.759Z,58.06
2023-05-10T12:44:47.402Z,58.39
2023-05-10T12:47:39.245Z,58.90
2023-05-10T12:50:30.849Z,59.48
2023-05-10T12:53:21.578Z,60.53
2023-05-10T12:56:12.289Z,61.04
2023-05-10T12:59:05.360Z,60.52
2023-05-10T13:01:56.085Z,59.87
2023-05-10T13:04:49.539Z,59.66
2023-05-10T13:07:44.998Z,60.27
2023-05-10T13:10:35.575Z,60.53
2023-05-10T13:13:26.071Z,59.41
2023-05-10T13:16:16.833Z,58.04
2023-05-10T13:19:07.408Z,58.33
2023-05-10T13:21:57.997Z,58.16
2023-05-10T13:24:48.782Z,57.41
2023-05-10T13:27:39.605Z,56.56
2023-05-10T13:30:30.355Z,54.85
2023-05-10T13:33:21.121Z,53.89
2023-05-10T13:36:11.881Z,52.96
2023-05-10T13:39:04.572Z,52.41
2023-05-10T13:41:55.771Z,50.95
2023-05-10T13:44:46.309Z,48.75
2023-05-10T13:47:37.509Z,48.53
2023-05-10T13:50:28.096Z,46.89
2023-05-10T13:53:18.725Z,46.76
2023-05-10T13:56:09.588Z,45.37
2023-05-10T13:59:00.546Z,44.02
2023-05-10T14:01:51.074Z,43.89
2023-05-10T14:04:41.948Z,43.68
2023-05-10T14:07:32.573Z,44.63
2023-05-10T14:10:23.177Z,46.59
2023-05-10T14:13:13.942Z,47.22
2023-05-10T14:16:04.557Z,47.43
2023-05-10T14:18:56.910Z,47.12
2023-05-10T14:21:47.555Z,46.17
2023-05-10T14:24:38.175Z,45.74
2023-05-10T14:27:28.764Z,45.42
2023-05-10T14:30:19.278Z,45.90
2023-05-10T14:33:10.025Z,45.77
2023-05-10T14:36:01.125Z,45.71
2023-05-10T14:38:51.661Z,45.78
2023-05-10T14:41:44.077Z,45.50
2023-05-10T14:44:34.454Z,44.81
2023-05-10T14:47:25.030Z,44.81
2023-05-10T14:50:28.202Z,45.07
2023-05-10T14:53:25.148Z,45.56
2023-05-10T14:56:15.745Z,45.85
2023-05-10T14:59:06.287Z,46.28
2023-05-10T15:01:57.464Z,46.22
2023-05-10T15:04:48.521Z,45.78
2023-05-10T15:07:39.644Z,47.02
2023-05-10T15:10:30.882Z,48.08
2023-05-10T15:13:22.292Z,48.17
2023-05-10T15:16:12.971Z,48.17
2023-05-10T15:19:03.953Z,48.37
2023-05-10T15:21:54.485Z,49.05
2023-05-10T15:24:45.089Z,49.51
2023-05-10T15:27:35.677Z,50.35
2023-05-10T15:30:26.476Z,51.40
2023-05-10T15:33:17.794Z,52.64
2023-05-10T15:36:08.822Z,53.00
2023-05-10T15:38:59.493Z,53.44
2023-05-10T15:41:50.111Z,54.11
2023-05-10T15:44:40.817Z,54.03
2023-05-10T15:47:32.365Z,54.03
2023-05-10T15:50:22.850Z,53.92
2023-05-10T15:53:13.545Z,54.32
2023-05-10T15:56:04.227Z,54.09
2023-05-10T15:58:54.875Z,53.90
2023-05-10T16:01:45.824Z,54.16
2023-05-10T16:04:36.374Z,54.05
2023-05-10T16:07:27.105Z,53.96
2023-05-10T16:10:17.872Z,53.94
2023-05-10T16:13:08.767Z,53.99
2023-05-10T16:16:00.342Z,54.05
2023-05-10T16:18:51.173Z,54.38
2023-05-10T16:21:41.789Z,53.79
2023-05-10T16:24:32.990Z,53.96
2023-05-10T16:27:28.822Z,54.11
2023-05-10T16:33:16.181Z,53.46
2023-05-10T16:36:06.899Z,52.61
2023-05-10T16:38:57.505Z,52.74
2023-05-10T16:41:48.245Z,53.08
2023-05-10T16:44:39.424Z,53.46
2023-05-10T16:47:39.708Z,53.54
2023-05-10T16:50:30.464Z,53.55
2023-05-10T16:53:24.601Z,53.91
2023-05-10T16:56:25.183Z,54.30
2023-05-10T16:59:16.610Z,54.60
2023-05-10T17:02:14.920Z,55.10
2023-05-10T17:05:16.112Z,55.21
2023-05-10T17:08:06.898Z,55.44
2023-05-10T17:10:57.613Z,55.34
2023-05-10T17:13:48.243Z,54.22
2023-05-10T17:16:39.092Z,53.29
2023-05-10T17:19:29.689Z,53.38
2023-05-10T17:22:20.277Z,53.84
2023-05-10T17:25:11.510Z,54.02
2023-05-10T17:28:02.089Z,53.92
2023-05-10T17:30:59.656Z,53.67
2023-05-10T17:33:50.367Z,54.06
2023-05-10T17:36:41.210Z,54.80
2023-05-10T17:39:31.798Z,55.68
2023-05-10T17:42:22.372Z,56.08
2023-05-10T17:45:13.448Z,56.59
2023-05-10T17:48:04.434Z,56.87
2023-05-10T17:50:55.105Z,56.67
2023-05-10T17:53:46.023Z,57.12
2023-05-10T17:56:39.286Z,57.48
2023-05-10T17:59:29.769Z,57.99
2023-05-10T18:02:20.271Z,58.23
2023-05-10T18:05:11.848Z,58.56
2023-05-10T18:08:02.684Z,59.06
2023-05-10T18:10:53.419Z,59.36
2023-05-10T18:13:44.189Z,59.41
2023-05-10T18:16:37.941Z,59.67
2023-05-10T18:19:28.615Z,59.55
2023-05-10T18:22:19.270Z,59.44
2023-05-10T18:25:10.621Z,59.64
2023-05-10T18:28:04.274Z,60.06
2023-05-10T18:30:55.027Z,60.44
2023-05-10T18:33:46.283Z,61.83
2023-05-10T18:36:58.207Z,63.24
2023-05-10T18:39:51.890Z,64.61
2023-05-10T18:42:55.393Z,66.04
2023-05-10T18:45:46.447Z,67.02
2023-05-10T18:48:37.037Z,67.93
2023-05-10T18:51:29.831Z,68.88
2023-05-10T18:54:31.070Z,69.23
2023-05-10T18:57:22.342Z,69.43
2023-05-10T19:00:24.016Z,69.73
2023-05-10T19:03:14.910Z,69.96
2023-05-10T19:06:06.260Z,70.54
2023-05-10T19:08:59.988Z,70.77
2023-05-10T19:11:50.813Z,70.87
2023-05-10T19:14:41.454Z,71.09
2023-05-10T19:17:44.923Z,71.04
2023-05-10T19:20:46.970Z,70.91
2023-05-10T19:23:39.545Z,70.85
2023-05-10T19:26:34.823Z,71.05
2023-05-10T19:29:25.420Z,71.28
2023-05-10T19:32:18.201Z,71.09
2023-05-10T19:35:19.004Z,70.96
2023-05-10T19:38:30.202Z,71.20
2023-05-10T19:41:28.726Z,71.52
2023-05-10T19:44:33.634Z,71.72
2023-05-10T19:47:30.025Z,72.06
2023-05-10T19:50:23.385Z,72.50
2023-05-10T19:53:34.165Z,73.24
2023-05-10T19:56:28.864Z,73.93
2023-05-10T19:59:23.954Z,74.82
2023-05-10T20:02:34.833Z,75.48
2023-05-10T20:05:38.254Z,76.18
2023-05-10T20:08:43.108Z,76.58
2023-05-10T20:11:42.663Z,76.87
2023-05-10T20:14:53.795Z,77.31
2023-05-10T20:18:04.884Z,77.80
2023-05-10T20:21:16.079Z,78.15
2023-05-10T20:24:26.852Z,78.45
2023-05-10T20:27:37.840Z,78.92
2023-05-10T20:30:49.780Z,79.12
2023-05-10T20:33:41.354Z,79.40
2023-05-10T20:36:37.478Z,79.46
2023-05-10T20:39:50.343Z,79.45
2023-05-10T20:43:01.825Z,79.55
2023-05-10T20:46:05.644Z,79.77
2023-05-10T20:49:06.092Z,79.85
2023-05-10T20:52:17.270Z,80.14
2023-05-10T20:55:28.409Z,80.33
2023-05-10T20:58:30.227Z,80.45
2023-05-10T21:01:41.627Z,80.65
2023-05-10T21:04:43.454Z,80.69
2023-05-10T21:07:55.231Z,80.61
2023-05-10T21:11:06.381Z,80.76
2023-05-10T21:14:17.476Z,80.89
2023-05-10T21:17:28.537Z,80.88
2023-05-10T21:20:39.786Z,80.95
2023-05-10T21:23:50.667Z,81.11
2023-05-10T21:26:53.030Z,81.11
2023-05-10T21:29:53.808Z,81.11
2023-05-10T21:33:05.407Z,81.15
2023-05-10T21:36:15.357Z,81.13
2023-05-10T21:39:26.076Z,81.04
2023-05-10T21:42:36.979Z,81.03
2023-05-10T21:45:48.329Z,80.91
2023-05-10T21:48:59.431Z,81.07
2023-05-10T21:52:03.946Z,81.12
2023-05-10T21:55:15.644Z,81.13
2023-05-10T21:58:26.677Z,81.11
2023-05-10T22:01:37.623Z,80.91
2023-05-10T22:04:49.856Z,80.59
2023-05-10T22:08:00.682Z,80.41
2023-05-10T22:11:04.703Z,80.25
2023-05-10T22:14:15.822Z,80.07
2023-05-10T22:17:26.659Z,80.23
2023-05-10T22:20:38.061Z,80.25
2023-05-10T22:23:31.033Z,80.25
2023-05-10T22:26:31.314Z,80.18
2023-05-10T22:29:42.232Z,80.13
2023-05-10T22:32:54.027Z,80.14
2023-05-10T22:35:45.305Z,80.10
2023-05-10T22:38:48.757Z,80.15
2023-05-10T22:41:53.134Z,80.15
2023-05-10T22:44:56.890Z,80.24
2023-05-10T22:48:01.124Z,80.41
2023-05-10T22:51:12.477Z,80.58
2023-05-10T22:54:27.113Z,80.84
2023-05-10T22:57:38.861Z,81.01
2023-05-10T23:00:50.443Z,81.12
2023-05-10T23:04:00.805Z,81.29
2023-05-10T23:07:12.199Z,81.44
2023-05-10T23:10:22.293Z,81.40
2023-05-10T23:13:16.173Z,81.45
2023-05-10T23:16:26.974Z,81.44
2023-05-10T23:19:28.779Z,81.50
2023-05-10T23:22:40.159Z,81.59
2023-05-10T23:25:50.868Z,81.69
2023-05-10T23:29:03.336Z,81.70
2023-05-10T23:32:14.423Z,81.73
2023-05-10T23:35:20.761Z,81.92
2023-05-10T23:38:31.518Z,82.33
2023-05-10T23:41:42.834Z,82.48
2023-05-10T23:44:53.854Z,82.68
2023-05-10T23:47:54.244Z,82.83
2023-05-10T23:51:05.835Z,82.91
2023-05-10T23:54:17.025Z,82.78
2023-05-10T23:57:28.624Z,82.93
